Time;durP1;ratioP1;P1;durP2;ratioP2;P2;SDS_P1;SDS_P2;PMS_P1;PMS_P2;Temp;Humidity;BMP_temperature;BMP_pressure;BME280_temperature;BME280_humidity;BME280_pressure;Samples;Min_cycle;Max_cycle;Signal;HPM_P1;HPM_P2
2022/04/18 00:01:12;;;;;;;3.78;2.22;;;;;;;11.81;67.66;100941.81;5112066;28;20031;-83
2022/04/18 00:03:38;;;;;;;4.05;2.55;;;;;;;11.68;67.22;100915.81;5112024;28;20032;-83
2022/04/18 00:06:04;;;;;;;3.00;2.05;;;;;;;11.79;67.70;100940.84;5112271;28;20499;-83
2022/04/18 00:08:29;;;;;;;2.83;2.35;;;;;;;11.47;67.59;100881.59;5109675;28;20408;-83
2022/04/18 00:10:55;;;;;;;2.88;2.00;;;;;;;11.74;67.43;100935.34;5111675;28;20089;-83
2022/04/18 00:13:20;;;;;;;2.90;2.10;;;;;;;11.48;67.63;100899.09;5099204;28;20458;-83
2022/04/18 00:15:46;;;;;;;3.50;2.20;;;;;;;11.67;67.51;100922.78;5085801;28;20033;-83
2022/04/18 00:18:12;;;;;;;3.45;2.25;;;;;;;11.42;67.69;100891.81;5099628;28;20036;-83
2022/04/18 00:20:37;;;;;;;3.33;2.20;;;;;;;11.34;67.29;100872.22;5111975;28;20031;-83
2022/04/18 00:23:03;;;;;;;3.57;2.20;;;;;;;11.72;67.79;100923.91;5093965;28;20446;-83
2022/04/18 00:25:29;;;;;;;3.92;2.30;;;;;;;11.52;67.85;100901.06;5091638;28;20286;-83
2022/04/18 00:27:54;;;;;;;3.20;2.20;;;;;;;11.21;68.03;100845.44;5116755;27;20036;-83
2022/04/18 00:30:20;;;;;;;3.22;2.30;;;;;;;11.25;68.06;100858.69;5091593;28;20058;-83
2022/04/18 00:32:46;;;;;;;2.80;2.10;;;;;;;11.51;68.16;100914.94;5093589;28;20054;-83
2022/04/18 00:35:11;;;;;;;3.38;2.08;;;;;;;11.45;68.17;100893.69;5108746;28;20028;-83
2022/04/18 00:37:40;;;;;;;3.60;2.20;;;;;;;11.54;67.76;100904.66;5102384;28;20550;-83
2022/04/18 00:40:06;;;;;;;2.55;2.10;;;;;;;11.69;67.67;100934.22;5091588;28;20093;-83
2022/04/18 00:42:35;;;;;;;2.97;2.20;;;;;;;11.69;67.74;100929.00;5091557;28;20147;-82
2022/04/18 00:45:01;;;;;;;2.70;2.03;;;;;;;11.51;67.61;100892.31;5099557;28;20109;-83
2022/04/18 00:47:27;;;;;;;2.92;2.00;;;;;;;11.62;67.83;100903.34;5109042;28;20036;-82
2022/04/18 00:49:52;;;;;;;2.63;2.13;;;;;;;11.38;67.64;100888.16;5091262;28;20032;-82
2022/04/18 00:52:18;;;;;;;2.30;2.10;;;;;;;11.47;67.88;100894.69;5094532;28;20404;-82
2022/04/18 00:54:44;;;;;;;3.65;2.00;;;;;;;11.46;68.05;100891.19;5090336;28;20024;-82
2022/04/18 00:57:10;;;;;;;2.50;1.98;;;;;;;11.40;68.07;100886.50;5092274;28;20047;-83
2022/04/18 00:59:37;;;;;;;3.13;2.28;;;;;;;11.11;67.85;100830.09;5101312;28;20032;-83
2022/04/18 01:02:04;;;;;;;2.85;2.00;;;;;;;11.29;67.45;100840.63;5089956;28;20024;-83
2022/04/18 01:04:31;;;;;;;2.50;1.90;;;;;;;11.63;67.73;100917.31;5095987;28;20024;-83
2022/04/18 01:06:57;;;;;;;2.63;2.08;;;;;;;11.31;67.67;100879.91;5109662;28;20552;-83
2022/04/18 01:09:23;;;;;;;2.35;2.00;;;;;;;11.23;67.83;100876.00;5109572;28;20027;-83
2022/04/18 01:11:49;;;;;;;2.42;2.10;;;;;;;11.41;67.66;100884.81;5109940;28;20031;-83
2022/04/18 01:14:15;;;;;;;;;;;;;;;11.64;67.28;100919.09;5108117;28;20020;-83
2022/04/18 01:16:41;;;;;;;2.92;1.92;;;;;;;11.55;67.65;100901.22;5091024;28;19928;-83
2022/04/18 01:19:07;;;;;;;2.35;2.15;;;;;;;11.56;68.03;100908.25;5090979;28;20036;-83
2022/04/18 01:21:32;;;;;;;2.53;2.00;;;;;;;11.25;67.84;100853.44;5093267;28;20048;-82
2022/04/18 01:23:59;;;;;;;2.72;2.13;;;;;;;11.55;67.56;100907.34;5112328;28;20507;-83
2022/04/18 01:29:09;;;;;;;2.72;2.25;;;;;;;11.28;67.84;100870.22;5103319;28;20043;-83
2022/04/18 01:31:36;;;;;;;2.50;2.00;;;;;;;10.94;68.38;100812.63;5094726;28;20024;-82
2022/04/18 01:34:04;;;;;;;4.45;2.00;;;;;;;11.04;67.47;100827.97;5093459;28;20039;-82
2022/04/18 01:36:30;;;;;;;2.22;1.98;;;;;;;11.47;67.68;100902.53;5098444;28;20519;-82
2022/04/18 01:38:56;;;;;;;2.47;2.05;;;;;;;11.32;67.71;100866.00;5114767;28;20084;-83
2022/04/18 01:41:22;;;;;;;2.20;2.00;;;;;;;11.48;67.94;100897.38;5113885;28;20035;-82
2022/04/18 01:43:48;;;;;;;2.45;2.10;;;;;;;10.94;67.96;100812.63;5113442;28;20469;-82
2022/04/18 01:46:17;;;;;;;2.15;1.90;;;;;;;11.46;67.98;100898.13;5112979;28;20119;-83
2022/04/18 01:48:43;;;;;;;2.28;1.90;;;;;;;11.47;67.49;100897.28;5105379;28;20039;-83
2022/04/18 01:51:09;;;;;;;2.20;2.00;;;;;;;11.39;67.75;100892.56;5113640;28;20395;-83
2022/04/18 01:53:35;;;;;;;2.30;2.08;;;;;;;11.30;67.91;100872.88;5083022;28;20055;-83
2022/04/18 01:56:00;;;;;;;1.83;1.60;;;;;;;11.43;67.65;100900.56;5093147;28;20103;-83
2022/04/18 01:58:26;;;;;;;2.35;2.00;;;;;;;11.35;68.06;100888.00;5094383;28;20486;-83
2022/04/18 02:00:52;;;;;;;2.42;1.80;;;;;;;11.00;67.55;100811.22;5093066;28;20038;-83
2022/04/18 02:03:18;;;;;;;2.50;2.10;;;;;;;11.39;67.62;100886.44;5076014;28;20036;-83
2022/04/18 02:05:44;;;;;;;2.83;2.08;;;;;;;11.37;67.97;100883.75;5094327;28;20101;-83
2022/04/18 02:08:10;;;;;;;;;;;;;;;11.38;67.80;100890.75;5105482;28;20039;-83
2022/04/18 02:10:36;;;;;;;1.85;1.75;;;;;;;11.25;67.75;100863.91;5092852;28;19916;-83
2022/04/18 02:13:01;;;;;;;1.98;1.77;;;;;;;11.11;68.00;100845.78;5092846;28;20477;-83
2022/04/18 02:15:27;;;;;;;2.17;1.98;;;;;;;11.33;68.12;100886.13;5092744;28;20115;-83
2022/04/18 02:17:53;;;;;;;2.25;2.05;;;;;;;10.88;67.76;100817.50;5093909;28;20060;-83
2022/04/18 02:20:18;;;;;;;2.10;1.90;;;;;;;11.15;68.11;100852.06;5092361;28;20464;-83
2022/04/18 02:22:44;;;;;;;1.80;1.70;;;;;;;11.22;67.94;100882.94;5092251;28;20040;-83
2022/04/18 02:25:10;;;;;;;2.33;1.95;;;;;;;11.20;68.10;100872.41;5093505;28;20058;-83
2022/04/18 02:27:36;;;;;;;1.85;1.67;;;;;;;11.31;67.72;100893.88;5093766;28;20028;-84
2022/04/18 02:30:03;;;;;;;2.75;2.10;;;;;;;11.30;68.21;100897.34;5092368;28;20039;-83
2022/04/18 02:35:22;;;;;;;2.47;1.92;;;;;;;11.28;67.72;100884.97;5092781;28;20034;-83
2022/04/18 02:37:48;;;;;;;2.22;1.85;;;;;;;11.08;67.79;100855.19;5093068;28;20020;-83
2022/04/18 02:40:14;;;;;;;3.15;2.10;;;;;;;11.15;67.83;100876.50;5093254;28;20059;-83
2022/04/18 02:42:42;;;;;;;2.85;2.00;;;;;;;11.28;68.02;100888.50;5103052;28;20488;-82
2022/04/18 02:45:20;;;;;;;2.53;2.20;;;;;;;11.12;68.05;100875.44;5112471;28;20103;-83
2022/04/18 02:47:47;;;;;;;3.55;2.10;;;;;;;11.20;67.60;100874.13;5101558;28;20123;-83
2022/04/18 02:50:12;;;;;;;2.80;2.10;;;;;;;11.14;68.05;100877.31;5092241;28;20028;-82
2022/04/18 02:52:38;;;;;;;3.53;2.05;;;;;;;11.28;67.88;100905.88;5094370;28;20032;-83
2022/04/18 02:55:05;;;;;;;2.95;2.00;;;;;;;11.08;68.07;100868.25;5101834;28;20462;-83
2022/04/18 02:57:30;;;;;;;2.55;2.00;;;;;;;11.09;68.10;100870.03;5101735;28;20036;-83
2022/04/18 02:59:56;;;;;;;1.95;1.77;;;;;;;11.06;68.20;100873.38;5103890;28;20085;-83
2022/04/18 03:02:22;;;;;;;3.28;2.15;;;;;;;11.04;67.74;100874.13;5109490;28;20043;-82
2022/04/18 03:04:47;;;;;;;3.78;2.03;;;;;;;11.18;67.91;100883.59;5098825;28;20035;-83
2022/04/18 03:07:13;;;;;;;2.65;1.95;;;;;;;10.91;67.95;100844.72;5103167;28;20489;-82
2022/04/18 03:09:39;;;;;;;2.47;2.13;;;;;;;10.99;67.82;100842.53;5113036;28;20031;-82
2022/04/18 03:12:06;;;;;;;3.47;2.33;;;;;;;10.62;68.25;100801.34;5091538;27;20042;-82
2022/04/18 03:14:32;;;;;;;2.50;1.80;;;;;;;11.14;67.93;100872.06;5083164;28;20028;-83
2022/04/18 03:16:58;;;;;;;;;;;;;;;11.16;68.23;100861.72;5095482;28;20035;-83
2022/04/18 03:19:24;;;;;;;2.63;1.83;;;;;;;11.15;68.07;100862.50;5080662;28;19916;-83
2022/04/18 03:21:50;;;;;;;3.30;2.20;;;;;;;11.13;68.27;100849.38;5094021;28;20130;-84
2022/04/18 03:24:15;;;;;;;2.40;1.80;;;;;;;10.95;68.17;100822.28;5095251;28;20455;-83
2022/04/18 03:26:41;;;;;;;3.38;2.15;;;;;;;11.07;68.04;100843.84;5089771;28;20059;-83
2022/04/18 03:29:07;;;;;;;2.05;1.67;;;;;;;11.06;68.15;100868.16;5092280;28;20034;-84
2022/04/18 03:31:33;;;;;;;2.42;1.80;;;;;;;10.91;67.91;100822.91;5092423;28;20106;-83
2022/04/18 03:33:58;;;;;;;2.28;1.65;;;;;;;11.15;67.81;100875.56;5092480;28;20039;-83
2022/04/18 03:41:52;;;;;;;2.67;1.80;;;;;;;11.07;67.87;100877.81;5091932;28;20805;-84
2022/04/18 03:44:18;;;;;;;2.45;1.95;;;;;;;11.03;67.65;100860.16;5091014;28;20517;-84
2022/04/18 03:46:44;;;;;;;1.90;1.70;;;;;;;11.06;68.07;100878.59;5092626;28;20032;-84
2022/04/18 03:49:10;;;;;;;2.55;1.95;;;;;;;10.93;68.13;100866.59;5091852;28;20086;-84
2022/04/18 03:51:36;;;;;;;1.77;1.52;;;;;;;10.95;68.17;100851.91;5091125;28;20031;-83
2022/04/18 03:54:02;;;;;;;2.40;1.80;;;;;;;10.95;67.75;100853.63;5091126;28;20454;-84
2022/04/18 03:56:27;;;;;;;1.77;1.60;;;;;;;11.01;68.31;100877.47;5090729;28;20489;-84
2022/04/18 03:58:53;;;;;;;2.83;1.98;;;;;;;10.88;68.22;100865.47;5092163;28;20051;-83
2022/04/18 04:01:18;;;;;;;2.38;1.50;;;;;;;11.03;68.25;100861.84;5092008;28;20024;-83
2022/04/18 04:03:44;;;;;;;1.90;1.65;;;;;;;10.93;68.16;100856.16;5090683;28;20059;-83
2022/04/18 04:06:10;;;;;;;2.15;1.73;;;;;;;10.82;68.39;100846.84;5090842;28;20043;-83
2022/04/18 04:08:36;;;;;;;1.67;1.50;;;;;;;10.87;68.21;100855.81;5092082;28;20032;-83
2022/04/18 04:11:01;;;;;;;2.25;1.60;;;;;;;10.93;68.62;100861.38;5091647;28;20043;-83
2022/04/18 04:13:27;;;;;;;2.10;1.73;;;;;;;10.69;68.25;100810.41;5090692;28;20035;-83
2022/04/18 04:15:53;;;;;;;1.90;1.63;;;;;;;10.79;67.84;100859.72;5091881;28;20024;-84
2022/04/18 04:18:18;;;;;;;2.15;1.77;;;;;;;10.63;68.26;100808.38;5091771;28;20446;-83
2022/04/18 04:20:44;;;;;;;2.40;1.88;;;;;;;10.64;68.29;100819.72;5091565;28;20036;-82
2022/04/18 04:23:09;;;;;;;2.15;1.58;;;;;;;10.93;68.16;100863.97;5090294;28;20073;-83
2022/04/18 04:25:35;;;;;;;2.67;1.80;;;;;;;10.80;68.29;100849.34;5091604;28;20047;-83
2022/04/18 04:28:01;;;;;;;1.90;1.70;;;;;;;10.83;67.94;100858.19;5090529;28;20020;-85
2022/04/18 04:30:26;;;;;;;5.68;1.63;;;;;;;10.60;68.52;100839.53;5090527;28;20350;-85
2022/04/18 04:32:52;;;;;;;2.37;2.00;;;;;;;10.50;68.07;100798.97;5090577;28;20028;-85
2022/04/18 04:35:18;;;;;;;2.15;1.75;;;;;;;10.76;68.38;100870.00;5091509;28;20648;-85
2022/04/18 04:37:43;;;;;;;2.60;1.80;;;;;;;10.88;68.15;100870.69;5090316;28;20035;-85
2022/04/18 04:40:11;;;;;;;2.35;1.88;;;;;;;10.80;68.15;100854.59;5087871;28;20032;-84
2022/04/18 04:42:37;;;;;;;2.40;1.98;;;;;;;10.57;68.40;100836.75;5083792;28;20475;-83
2022/04/18 04:45:02;;;;;;;2.13;1.70;;;;;;;10.79;68.54;100860.63;5070786;28;20028;-84
2022/04/18 04:47:28;;;;;;;2.03;1.70;;;;;;;10.92;68.03;100904.00;5076450;28;20085;-85
2022/04/18 04:49:54;;;;;;;2.53;2.03;;;;;;;10.66;68.15;100845.09;5086220;28;20028;-84
2022/04/18 04:52:20;;;;;;;2.80;1.60;;;;;;;10.87;68.13;100895.00;5094131;28;20054;-83
2022/04/18 04:54:45;;;;;;;1.90;1.60;;;;;;;10.65;68.17;100865.94;5076639;28;20482;-84
2022/04/18 04:57:11;;;;;;;1.70;1.60;;;;;;;10.65;68.44;100852.88;5079028;28;20047;-85
2022/04/18 04:59:37;;;;;;;2.38;1.88;;;;;;;10.88;68.13;100915.09;5076119;28;20486;-85
2022/04/18 05:02:02;;;;;;;2.10;1.60;;;;;;;10.61;68.29;100854.41;5085256;28;20089;-83
2022/04/18 05:04:28;;;;;;;2.10;1.52;;;;;;;10.63;68.44;100862.31;5080473;28;20035;-82
2022/04/18 05:06:54;;;;;;;1.95;1.70;;;;;;;10.61;68.16;100867.47;5074284;28;20524;-84
2022/04/18 05:09:19;;;;;;;2.08;1.70;;;;;;;10.54;68.21;100871.44;5089982;28;20044;-83
2022/04/18 05:11:46;;;;;;;2.85;1.98;;;;;;;10.86;68.12;100887.06;5074077;28;20036;-80
2022/04/18 05:14:14;;;;;;;2.10;1.90;;;;;;;10.47;68.23;100864.06;5089866;28;20032;-80
2022/04/18 05:16:40;;;;;;;2.00;1.80;;;;;;;10.77;68.38;100888.38;5089829;28;20043;-80
2022/04/18 05:19:06;;;;;;;1.80;1.65;;;;;;;10.74;68.79;100936.94;5092789;28;20441;-84
2022/04/18 05:21:32;;;;;;;;;;;;;;;10.78;68.47;100897.13;5089242;28;20123;-84
2022/04/18 05:23:57;;;;;;;3.28;1.98;;;;;;;10.66;68.78;100892.09;5060180;28;19987;-85
2022/04/18 05:26:23;;;;;;;2.05;1.85;;;;;;;10.54;68.75;100880.97;5073913;28;20025;-84
2022/04/18 05:28:49;;;;;;;2.10;1.90;;;;;;;10.73;68.50;100906.41;5094816;28;20033;-85
2022/04/18 05:31:17;;;;;;;2.55;2.10;;;;;;;10.57;68.59;100881.16;5092404;28;20497;-85
2022/04/18 05:33:43;;;;;;;1.92;1.73;;;;;;;10.42;68.17;100873.38;5086330;28;20067;-85
2022/04/18 05:36:09;;;;;;;;;;;;;;;10.73;68.70;100915.16;5091541;28;20477;-82
2022/04/18 05:38:35;;;;;;;4.25;1.83;;;;;;;10.15;68.44;100836.13;5086529;28;19937;-83
2022/04/18 05:41:01;;;;;;;2.22;1.90;;;;;;;10.28;68.53;100856.00;5085898;28;20032;-82
2022/04/18 05:43:28;;;;;;;1.95;1.75;;;;;;;10.31;68.86;100864.94;5073727;28;20041;-83
2022/04/18 05:45:53;;;;;;;1.85;1.73;;;;;;;10.45;68.65;100876.13;5074161;28;20036;-82
2022/04/18 05:48:19;;;;;;;2.42;2.00;;;;;;;10.55;68.69;100912.41;5079910;28;20031;-82
2022/04/18 05:50:45;;;;;;;3.97;2.00;;;;;;;10.72;68.39;100928.13;5073166;28;20032;-83
2022/04/18 05:53:15;;;;;;;2.20;2.00;;;;;;;10.69;68.62;100920.09;5071785;28;20093;-83
2022/04/18 05:55:41;;;;;;;2.15;1.90;;;;;;;10.67;69.01;100935.69;5087969;28;20028;-83
2022/04/18 05:58:07;;;;;;;;;;;;;;;10.68;68.63;100932.25;5078813;28;20062;-82
2022/04/18 06:00:34;;;;;;;2.13;1.92;;;;;;;10.67;68.79;100927.88;5091447;28;19950;-83
2022/04/18 06:03:01;;;;;;;2.70;2.10;;;;;;;10.47;68.87;100911.06;5093243;28;20567;-81
2022/04/18 06:05:27;;;;;;;2.30;2.10;;;;;;;10.44;68.78;100892.63;5092430;28;20440;-82
2022/04/18 06:07:53;;;;;;;3.03;2.00;;;;;;;10.59;68.79;100930.03;5093535;28;20074;-81
2022/04/18 06:10:19;;;;;;;2.80;2.30;;;;;;;10.63;68.91;100938.94;5092641;28;20456;-82
2022/04/18 06:12:44;;;;;;;2.83;2.33;;;;;;;10.58;68.87;100935.16;5094242;28;20035;-82
2022/04/18 06:15:11;;;;;;;2.40;2.00;;;;;;;10.64;68.84;100940.72;5093780;28;20074;-89
2022/04/18 06:17:36;;;;;;;2.63;2.20;;;;;;;10.54;68.77;100922.75;5075010;28;20036;-83
2022/04/18 06:20:03;;;;;;;2.42;2.10;;;;;;;10.55;68.67;100940.22;5092857;28;20035;-83
2022/04/18 06:22:28;;;;;;;;;;;;;;;10.63;68.76;100959.84;5093587;28;20043;-83
2022/04/18 06:24:54;;;;;;;3.33;2.22;;;;;;;10.60;68.76;100949.22;5093337;28;20400;-83
2022/04/18 06:27:20;;;;;;;2.58;2.30;;;;;;;10.59;69.04;100956.16;5092728;28;20031;-82
2022/04/18 06:29:45;;;;;;;2.85;2.28;;;;;;;10.58;68.87;100950.84;5092620;28;20027;-82
2022/04/18 06:32:11;;;;;;;3.05;2.35;;;;;;;10.55;68.90;100938.50;5093654;28;20040;-83
2022/04/18 06:34:36;;;;;;;2.20;2.00;;;;;;;10.58;68.76;100943.00;5093602;28;20119;-82
2022/04/18 06:37:02;;;;;;;3.20;2.50;;;;;;;10.45;69.05;100917.00;5093677;28;20604;-82
2022/04/18 06:39:28;;;;;;;2.60;2.30;;;;;;;10.44;68.99;100931.78;5092258;28;20036;-82
2022/04/18 06:41:55;;;;;;;2.63;2.25;;;;;;;10.57;68.80;100947.31;5093412;28;20066;-82
2022/04/18 06:44:21;;;;;;;2.72;2.30;;;;;;;10.43;68.85;100919.53;5092363;28;20133;-81
2022/04/18 06:46:46;;;;;;;3.88;2.60;;;;;;;10.58;68.84;100953.44;5093332;28;20028;-82
2022/04/18 06:49:12;;;;;;;2.92;2.63;;;;;;;10.56;68.78;100952.44;5093340;28;20035;-82
2022/04/18 06:51:38;;;;;;;3.38;2.58;;;;;;;10.45;68.66;100945.72;5092091;28;20111;-82
2022/04/18 06:54:03;;;;;;;2.88;2.38;;;;;;;10.38;68.92;100927.09;5093190;28;20063;-82
2022/04/18 06:57:14;;;;;;;2.83;2.35;;;;;;;10.41;68.62;100931.59;5093243;28;20451;-82
2022/04/18 06:59:18;;;;;;;4.00;2.47;;;;;;;10.46;68.81;100950.16;5084861;28;20039;-82
2022/04/18 07:01:44;;;;;;;3.83;2.60;;;;;;;10.37;69.01;100940.97;5092960;28;20027;-82
2022/04/18 07:04:11;;;;;;;;;;;;;;;10.51;69.00;100960.03;5093513;28;20035;-82
2022/04/18 07:06:37;;;;;;;3.85;2.58;;;;;;;10.37;68.51;100933.16;5091669;28;19935;-82
2022/04/18 07:09:03;;;;;;;4.05;3.00;;;;;;;10.41;68.76;100928.97;5093005;28;20379;-82
2022/04/18 07:11:28;;;;;;;5.32;3.47;;;;;;;10.55;68.38;100954.16;5092910;28;20024;-82
2022/04/18 07:13:54;;;;;;;5.57;3.70;;;;;;;10.52;68.34;100951.41;5091741;28;20036;-82
2022/04/18 07:16:19;;;;;;;5.40;3.67;;;;;;;10.19;68.81;100908.56;5091691;28;20024;-82
2022/04/18 07:18:45;;;;;;;5.78;3.60;;;;;;;10.12;68.53;100912.53;5092846;28;20031;-81
2022/04/18 07:21:10;;;;;;;5.23;3.53;;;;;;;10.40;68.35;100948.09;5092373;28;20048;-82
2022/04/18 07:23:36;;;;;;;5.67;3.40;;;;;;;10.33;68.87;100930.28;5092549;28;20302;-82
2022/04/18 07:26:02;;;;;;;5.70;3.67;;;;;;;10.28;68.49;100935.19;5092652;28;20020;-82
2022/04/18 07:28:27;;;;;;;6.28;4.07;;;;;;;10.12;68.53;100911.63;5092664;28;20489;-82
2022/04/18 07:30:53;;;;;;;6.05;3.25;;;;;;;10.21;68.38;100911.25;5092706;28;20024;-82
2022/04/18 07:33:19;;;;;;;5.82;3.60;;;;;;;10.36;68.52;100962.66;5091444;28;20028;-82
2022/04/18 07:35:44;;;;;;;6.10;3.80;;;;;;;10.36;68.63;100967.88;5074355;28;20132;-82
2022/04/18 07:40:54;;;;;;;6.65;3.72;;;;;;;10.37;68.94;100979.22;5092362;28;20085;-81
2022/04/18 07:43:21;;;;;;;7.45;3.90;;;;;;;10.29;68.61;100970.97;5091186;28;20024;-82
2022/04/18 07:45:48;;;;;;;5.05;3.58;;;;;;;10.16;68.73;100957.97;5092282;28;20662;-82
2022/04/18 07:48:14;;;;;;;5.20;3.50;;;;;;;10.23;68.51;100967.06;5092373;28;20417;-82
2022/04/18 07:53:23;;;;;;;6.30;3.53;;;;;;;10.33;68.53;100978.16;5091227;28;20447;-82
2022/04/18 07:55:49;;;;;;;5.65;3.55;;;;;;;10.34;68.58;100992.09;5090882;28;20024;-82
2022/04/18 07:58:14;;;;;;;5.63;3.72;;;;;;;10.41;68.85;100995.97;5091983;28;20032;-82
2022/04/18 08:00:40;;;;;;;4.83;3.40;;;;;;;10.19;68.79;100974.69;5092148;28;20039;-82
2022/04/18 08:03:06;;;;;;;6.18;3.88;;;;;;;10.36;68.83;101001.81;5091648;28;20771;-83
2022/04/18 08:05:31;;;;;;;5.43;3.42;;;;;;;10.30;68.64;100979.69;5092045;28;20020;-82
2022/04/18 08:07:57;;;;;;;6.57;3.70;;;;;;;10.35;68.88;100992.19;5091785;28;20469;-82
2022/04/18 08:10:22;;;;;;;4.78;3.47;;;;;;;10.14;69.15;100970.94;5092000;28;20695;-83
2022/04/18 08:12:49;;;;;;;5.82;3.40;;;;;;;10.29;69.01;100991.84;5092086;28;20039;-82
2022/04/18 08:15:14;;;;;;;5.90;3.40;;;;;;;10.12;69.02;100969.03;5091807;28;20024;-82
2022/04/18 08:17:40;;;;;;;5.63;3.65;;;;;;;10.09;68.76;100961.03;5090286;28;20481;-82
2022/04/18 08:20:06;;;;;;;5.30;3.40;;;;;;;10.28;68.64;100997.81;5090612;28;20020;-82
2022/04/18 08:22:31;;;;;;;4.88;3.22;;;;;;;10.15;68.91;100984.88;5091316;28;20058;-82
2022/04/18 08:24:57;;;;;;;4.75;3.28;;;;;;;10.14;69.08;100973.53;5072409;28;20086;-83
2022/04/18 08:27:23;;;;;;;5.03;3.28;;;;;;;10.22;68.72;101001.78;5071520;28;20020;-83
2022/04/18 08:29:48;;;;;;;6.75;4.00;;;;;;;10.05;68.66;100956.44;5071064;28;20031;-83
2022/04/18 08:32:14;;;;;;;6.13;3.58;;;;;;;10.04;68.92;100973.78;5071467;28;20020;-83
2022/04/18 08:34:40;;;;;;;4.50;3.50;;;;;;;10.28;68.83;101013.47;5071441;28;20031;-83
2022/04/18 08:37:07;;;;;;;;;;;;;;;10.28;68.90;101020.41;5071584;28;20028;-83
2022/04/18 08:39:32;;;;;;;5.43;3.35;;;;;;;10.06;69.39;100995.66;5069964;28;19916;-83
2022/04/18 08:41:59;;;;;;;5.90;3.40;;;;;;;10.27;69.23;101027.34;5070016;28;20107;-83
2022/04/18 08:44:28;;;;;;;5.13;3.60;;;;;;;10.09;69.12;100994.94;5070079;28;20029;-83
2022/04/18 08:46:57;;;;;;;5.80;3.63;;;;;;;10.21;69.19;101024.38;5071436;28;20028;-83
2022/04/18 08:54:52;;;;;;;4.80;3.47;;;;;;;10.19;68.96;101024.28;5071489;28;20035;-84
2022/04/18 08:57:17;;;;;;;6.38;3.40;;;;;;;10.22;69.32;101041.81;5069739;28;20044;-85
2022/04/18 08:59:43;;;;;;;5.65;3.55;;;;;;;10.27;69.25;101048.25;5069787;28;20033;-82
2022/04/18 09:02:09;;;;;;;4.47;3.10;;;;;;;10.07;69.18;101013.09;5069840;28;20089;-84
2022/04/18 09:04:35;;;;;;;5.55;3.25;;;;;;;10.21;69.02;101033.94;5071131;28;20032;-82
2022/04/18 09:07:14;;;;;;;4.20;3.15;;;;;;;10.22;69.40;101049.66;5069900;28;20097;-82
2022/04/18 09:09:40;;;;;;;4.80;3.40;;;;;;;10.23;69.29;101043.66;5069707;28;20039;-83
2022/04/18 09:12:29;;;;;;;5.93;3.75;;;;;;;10.24;69.21;101057.59;5069446;28;20104;-82
2022/04/18 09:14:55;;;;;;;5.82;3.53;;;;;;;10.21;68.93;101036.53;5069797;28;20482;-82
2022/04/18 09:17:32;;;;;;;4.57;3.17;;;;;;;9.96;69.21;100993.31;5069494;28;20056;-83
2022/04/18 09:20:11;;;;;;;5.70;3.10;;;;;;;10.24;68.85;101060.19;5069737;28;20133;-84
2022/04/18 09:22:45;;;;;;;4.82;3.50;;;;;;;10.05;69.23;101025.16;5069133;28;20050;-83
2022/04/18 09:25:18;;;;;;;4.45;3.10;;;;;;;10.23;69.02;101069.75;5088873;28;20080;-84
2022/04/18 09:27:53;;;;;;;4.13;3.15;;;;;;;10.21;69.42;101062.63;5089796;28;20027;-82
2022/04/18 09:30:19;;;;;;;5.20;3.33;;;;;;;9.90;69.30;101009.47;5089877;28;20126;-82
2022/04/18 09:33:01;;;;;;;5.90;3.15;;;;;;;9.88;69.13;101015.41;5090027;28;20052;-81
2022/04/18 09:35:27;;;;;;;4.30;3.55;;;;;;;9.94;69.33;101034.06;5089931;28;20339;-82
2022/04/18 09:37:54;;;;;;;3.90;2.97;;;;;;;10.13;69.21;101068.28;5090949;28;20404;-83
2022/04/18 09:40:23;;;;;;;4.88;3.53;;;;;;;10.15;69.29;101073.59;5089645;28;20035;-83
2022/04/18 09:42:53;;;;;;;4.72;3.13;;;;;;;9.87;69.29;101026.69;5093688;28;20024;-83
2022/04/18 09:45:20;;;;;;;4.25;3.25;;;;;;;10.15;69.43;101076.19;5093423;28;20035;-84
2022/04/18 09:47:55;;;;;;;3.85;3.20;;;;;;;9.99;69.49;101057.03;5093203;28;20520;-83
2022/04/18 09:53:08;;;;;;;4.78;3.20;;;;;;;10.14;69.32;101084.84;5093563;28;20471;-84
2022/04/18 09:55:35;;;;;;;3.88;3.03;;;;;;;10.14;69.18;101090.97;5093359;28;20061;-83
2022/04/18 09:58:04;;;;;;;3.38;3.00;;;;;;;10.14;69.44;101087.47;5093001;28;20063;-84
2022/04/18 10:00:30;;;;;;;4.03;3.22;;;;;;;9.95;69.50;101052.41;5094267;28;20028;-83
2022/04/18 10:02:59;;;;;;;4.45;3.30;;;;;;;10.13;69.49;101081.31;5094029;28;20035;-83
2022/04/18 10:05:27;;;;;;;4.72;3.35;;;;;;;9.90;69.69;101043.41;5094012;28;20070;-83
2022/04/18 10:07:53;;;;;;;5.50;3.17;;;;;;;10.12;69.14;101081.25;5093039;28;20032;-83
2022/04/18 10:10:19;;;;;;;4.30;3.05;;;;;;;9.99;69.41;101061.34;5094115;28;20039;-83
2022/04/18 10:12:45;;;;;;;4.38;3.30;;;;;;;9.97;69.54;101057.75;5092678;28;20036;-83
2022/04/18 10:15:10;;;;;;;4.50;3.05;;;;;;;9.90;69.47;101043.41;5092848;28;20035;-83
2022/04/18 10:17:38;;;;;;;5.50;3.10;;;;;;;9.77;69.84;101020.00;5092882;28;20112;-83
2022/04/18 10:20:19;;;;;;;4.43;3.20;;;;;;;10.14;69.47;101090.06;5093874;28;20085;-83
2022/04/18 10:23:05;;;;;;;3.83;3.10;;;;;;;10.10;69.31;101086.38;5093498;28;20047;-83
2022/04/18 10:25:37;;;;;;;6.10;3.40;;;;;;;10.09;69.41;101089.75;5073694;28;20502;-83
2022/04/18 10:28:14;;;;;;;5.55;3.53;;;;;;;10.00;69.46;101070.97;5073630;28;20032;-83
2022/04/18 10:30:48;;;;;;;4.95;3.25;;;;;;;10.11;69.57;101100.31;5072182;28;20035;-83
2022/04/18 10:33:14;;;;;;;3.80;3.22;;;;;;;10.10;69.74;101093.31;5089094;28;20029;-83
2022/04/18 10:36:09;;;;;;;4.32;3.28;;;;;;;10.08;69.67;101103.63;5071792;28;20129;-83
2022/04/18 10:38:44;;;;;;;5.88;3.50;;;;;;;10.08;69.64;101111.47;5072044;28;20047;-83
2022/04/18 10:41:38;;;;;;;5.15;3.50;;;;;;;10.07;69.81;101103.53;5072241;28;20029;-83
2022/04/18 10:44:08;;;;;;;5.22;3.22;;;;;;;10.07;69.81;101099.22;5071486;28;20482;-83
2022/04/18 10:47:06;;;;;;;4.50;3.20;;;;;;;10.10;69.28;101101.13;5073217;28;20033;-83
2022/04/18 10:49:32;;;;;;;5.57;3.20;;;;;;;10.04;69.80;101104.25;5088481;28;20028;-83
2022/04/18 10:52:08;;;;;;;6.03;3.55;;;;;;;10.03;69.66;101112.88;5071651;28;20040;-83
2022/04/18 10:54:34;;;;;;;4.78;3.53;;;;;;;10.02;69.49;101099.75;5055518;28;20063;-83
2022/04/18 10:57:01;;;;;;;3.92;3.17;;;;;;;10.04;69.25;101112.09;5071805;28;20064;-84
2022/04/18 10:59:31;;;;;;;4.65;3.25;;;;;;;10.06;69.48;101114.78;5072899;28;20709;-83
2022/04/18 11:01:59;;;;;;;3.53;3.08;;;;;;;9.75;69.84;101068.53;5071827;28;20528;-83
2022/04/18 11:04:26;;;;;;;6.43;3.95;;;;;;;10.03;69.45;101122.41;5071687;28;20028;-83
2022/04/18 11:07:00;;;;;;;4.05;3.40;;;;;;;10.05;69.50;101121.69;5072595;28;20493;-83
2022/04/18 11:09:27;;;;;;;4.25;3.30;;;;;;;9.60;69.73;101044.13;5072643;28;20115;-83
2022/04/18 11:11:53;;;;;;;4.95;3.58;;;;;;;10.02;69.73;101113.69;5072621;28;20063;-83
2022/04/18 11:14:23;;;;;;;4.53;3.58;;;;;;;9.90;69.68;101090.34;5072455;28;20017;-83
2022/04/18 11:16:54;;;;;;;4.25;3.30;;;;;;;10.05;69.80;101110.38;5072288;28;20429;-83
2022/04/18 11:19:20;;;;;;;4.78;3.38;;;;;;;10.07;69.31;101116.56;5087678;28;20017;-83
2022/04/18 11:21:55;;;;;;;;;;;;;;;10.03;69.95;101106.75;5072104;28;20047;-83
2022/04/18 11:24:57;;;;;;;5.65;3.65;;;;;;;10.02;69.52;101107.59;5083869;28;19919;-83
2022/04/18 11:27:26;;;;;;;3.78;3.10;;;;;;;10.02;69.63;101112.81;5092379;28;20031;-83
2022/04/18 11:30:21;;;;;;;5.13;3.33;;;;;;;10.01;70.02;101119.69;5092055;28;20031;-83
2022/04/18 11:32:46;;;;;;;4.10;3.40;;;;;;;9.97;69.68;101109.91;5091658;28;20516;-83
2022/04/18 11:35:14;;;;;;;4.40;3.63;;;;;;;9.95;69.67;101107.19;5091115;28;20024;-83
2022/04/18 11:37:43;;;;;;;4.00;3.20;;;;;;;10.02;69.46;101118.91;5090963;28;20111;-82
2022/04/18 11:40:15;;;;;;;5.38;3.28;;;;;;;10.00;69.61;101123.13;5091153;28;20165;-83
2022/04/18 11:42:41;;;;;;;3.60;2.95;;;;;;;9.92;69.87;101104.38;5091915;28;20035;-82
2022/04/18 11:45:09;;;;;;;4.05;3.28;;;;;;;9.72;69.55;101071.88;5090969;28;20028;-83
2022/04/18 11:47:38;;;;;;;4.05;3.20;;;;;;;9.87;69.66;101094.50;5091105;28;20054;-83
2022/04/18 11:50:05;;;;;;;3.83;3.30;;;;;;;10.02;70.06;101116.31;5091198;28;20169;-82
2022/04/18 11:52:34;;;;;;;4.40;3.20;;;;;;;10.05;69.79;101119.09;5090980;28;20058;-83
2022/04/18 11:55:07;;;;;;;4.55;3.40;;;;;;;9.96;69.80;101106.38;5097773;28;20497;-82